Time;durP1;ratioP1;P1;durP2;ratioP2;P2;SDS_P1;SDS_P2;PMS_P1;PMS_P2;Temp;Humidity;BMP_temperature;BMP_pressure;BME280_temperature;BME280_humidity;BME280_pressure;Samples;Min_cycle;Max_cycle;Signal;HPM_P1;HPM_P2
2023/08/21 00:00:20;;;;;;;5.87;3.10;;;27.50;90.60;;;;;;1712575;83;21167;-76
2023/08/21 00:03:11;;;;;;;5.70;2.90;;;27.40;91.10;;;;;;1712466;84;21181;-77
2023/08/21 00:06:02;;;;;;;6.25;3.20;;;27.40;91.30;;;;;;1712116;83;21170;-77
2023/08/21 00:08:54;;;;;;;6.28;3.20;;;27.40;91.40;;;;;;1712241;83;21151;-77
2023/08/21 00:11:45;;;;;;;7.00;3.77;;;27.40;91.50;;;;;;1711303;84;21150;-77
2023/08/21 00:14:36;;;;;;;4.00;3.17;;;27.40;91.50;;;;;;1760400;81;21133;-76
2023/08/21 00:17:27;;;;;;;5.20;3.15;;;27.50;91.70;;;;;;1711489;84;21105;-77
2023/08/21 00:20:19;;;;;;;5.80;3.58;;;27.40;91.90;;;;;;1711591;84;21152;-77
2023/08/21 00:23:11;;;;;;;7.15;3.20;;;27.40;92.20;;;;;;1760492;81;21160;-77
2023/08/21 00:26:02;;;;;;;8.80;3.30;;;27.30;92.30;;;;;;1711592;84;21234;-77
2023/08/21 00:28:53;;;;;;;6.42;3.45;;;27.20;92.50;;;;;;1760563;81;21136;-77
2023/08/21 00:31:45;;;;;;;9.48;3.80;;;27.20;92.70;;;;;;1711567;84;21160;-76
2023/08/21 00:34:36;;;;;;;5.28;3.70;;;27.20;93.20;;;;;;1760387;81;21169;-77
2023/08/21 00:37:28;;;;;;;7.30;4.08;;;27.20;93.10;;;;;;1711357;84;21165;-76
2023/08/21 00:40:20;;;;;;;7.17;3.60;;;27.30;93.20;;;;;;1710956;84;21148;-77
2023/08/21 00:43:12;;;;;;;6.35;3.83;;;27.30;93.30;;;;;;1759774;81;21198;-77
2023/08/21 00:46:04;;;;;;;6.55;3.90;;;27.30;93.30;;;;;;1711704;84;21152;-77
2023/08/21 00:48:55;;;;;;;8.18;3.92;;;27.30;93.50;;;;;;1760521;81;21459;-77
2023/08/21 00:51:46;;;;;;;7.85;4.00;;;27.30;93.70;;;;;;1711488;84;21635;-77
2023/08/21 00:54:38;;;;;;;6.45;4.37;;;27.30;93.90;;;;;;1711314;84;21277;-77
2023/08/21 00:57:29;;;;;;;6.53;3.55;;;27.30;94.20;;;;;;1760260;81;21616;-77
2023/08/21 01:00:22;;;;;;;6.92;3.72;;;27.30;94.30;;;;;;1711475;84;21161;-77
2023/08/21 01:03:14;;;;;;;8.30;3.35;;;27.30;94.30;;;;;;1760302;81;21144;-77
2023/08/21 01:06:06;;;;;;;6.80;3.75;;;27.30;94.30;;;;;;1711518;84;21145;-77
2023/08/21 01:09:01;;;;;;;6.03;4.12;;;27.10;94.70;;;;;;1711496;84;21604;-77
2023/08/21 01:11:56;;;;;;;6.85;4.00;;;26.90;95.20;;;;;;1766115;81;21223;-77
2023/08/21 01:14:54;;;;;;;6.30;3.72;;;26.70;95.70;;;;;;1704708;84;21197;-77
2023/08/21 01:17:47;;;;;;;5.58;3.37;;;26.70;95.60;;;;;;1769861;81;21135;-77
2023/08/21 01:20:41;;;;;;;6.80;3.50;;;26.80;95.70;;;;;;1704699;84;21195;-77
2023/08/21 01:23:36;;;;;;;6.60;3.47;;;26.80;95.90;;;;;;1769501;81;21121;-77
2023/08/21 01:26:27;;;;;;;6.08;3.42;;;26.80;96.10;;;;;;1704699;84;21108;-77
2023/08/21 01:29:19;;;;;;;7.03;3.52;;;26.80;96.10;;;;;;1769487;81;21130;-77
2023/08/21 01:32:14;;;;;;;6.80;3.70;;;26.80;96.60;;;;;;1704705;84;21192;-77
2023/08/21 01:35:09;;;;;;;7.03;3.60;;;26.60;96.70;;;;;;1769434;81;21176;-77
2023/08/21 01:38:01;;;;;;;6.97;3.70;;;26.50;97.10;;;;;;1704512;84;21152;-77
2023/08/21 01:40:52;;;;;;;7.20;4.05;;;26.50;97.20;;;;;;1769474;81;21080;-77
2023/08/21 01:43:43;;;;;;;5.25;3.37;;;26.60;97.30;;;;;;1704275;84;21230;-76
2023/08/21 01:46:35;;;;;;;5.40;3.70;;;26.50;97.60;;;;;;1769223;81;21657;-77
2023/08/21 01:49:26;;;;;;;7.15;3.77;;;26.50;98.20;;;;;;1704133;84;21144;-77
2023/08/21 01:52:18;;;;;;;6.78;4.20;;;26.30;98.90;;;;;;1769480;81;21092;-76
2023/08/21 01:55:10;;;;;;;5.03;3.60;;;26.30;99.40;;;;;;1704776;84;21541;-76
2023/08/21 01:58:01;;;;;;;8.48;4.37;;;26.30;99.90;;;;;;1769458;81;21166;-76
2023/08/21 02:00:53;;;;;;;7.33;3.90;;;26.20;99.90;;;;;;1704699;84;21272;-77
2023/08/21 02:03:44;;;;;;;6.28;3.80;;;26.10;99.90;;;;;;1769615;81;21139;-77
2023/08/21 02:06:36;;;;;;;14.35;4.92;;;26.10;99.90;;;;;;1704724;84;21196;-76
2023/08/21 02:09:29;;;;;;;8.10;3.45;;;26.10;99.90;;;;;;1769557;81;21253;-77
2023/08/21 02:12:20;;;;;;;10.63;5.40;;;26.00;99.90;;;;;;1708350;82;21227;-76
2023/08/21 02:15:12;;;;;;;6.67;4.72;;;26.00;99.90;;;;;;1712539;84;21180;-76
2023/08/21 02:18:04;;;;;;;10.25;4.83;;;26.00;99.90;;;;;;1712651;84;21595;-76
2023/08/21 02:20:56;;;;;;;9.00;5.28;;;26.00;99.90;;;;;;1712480;83;21245;-77
2023/08/21 02:23:47;;;;;;;7.75;4.70;;;26.10;99.90;;;;;;1712600;84;21112;-77
2023/08/21 02:26:38;;;;;;;6.60;4.92;;;26.00;99.90;;;;;;1712304;83;21152;-77
2023/08/21 02:29:30;;;;;;;7.85;4.78;;;25.90;99.90;;;;;;1712347;83;21219;-77
2023/08/21 02:32:21;;;;;;;8.38;5.00;;;25.90;99.90;;;;;;1712354;84;21242;-77
2023/08/21 02:35:12;;;;;;;11.20;6.00;;;25.80;99.90;;;;;;1711840;84;21168;-76
2023/08/21 02:38:04;;;;;;;8.38;6.08;;;25.70;99.90;;;;;;1711966;84;21226;-76
2023/08/21 02:40:57;;;;;;;8.90;7.17;;;25.70;99.90;;;;;;1711979;83;21658;-76
2023/08/21 02:43:48;;;;;;;9.10;6.00;;;25.80;99.90;;;;;;1712483;84;21132;-77
2023/08/21 02:46:40;;;;;;;9.85;6.10;;;25.90;99.90;;;;;;1712511;84;21769;-77
2023/08/21 02:49:32;;;;;;;9.20;5.47;;;25.90;99.90;;;;;;1712228;83;21196;-76
2023/08/21 02:52:23;;;;;;;8.85;4.62;;;25.90;99.90;;;;;;1712563;83;21168;-77
2023/08/21 02:55:15;;;;;;;7.97;4.75;;;26.00;99.90;;;;;;1712598;84;21623;-76
2023/08/21 02:58:09;;;;;;;5.95;4.05;;;26.00;99.90;;;;;;1712784;84;21477;-76
2023/08/21 03:01:01;;;;;;;8.63;4.72;;;26.00;99.90;;;;;;1712476;83;21192;-77
2023/08/21 03:03:53;;;;;;;8.08;4.35;;;26.10;99.90;;;;;;1712531;84;21623;-77
2023/08/21 03:06:44;;;;;;;6.70;4.60;;;26.10;99.90;;;;;;1712557;84;21208;-77
2023/08/21 03:09:35;;;;;;;10.05;5.00;;;26.10;99.90;;;;;;1712639;84;21668;-77
2023/08/21 03:12:28;;;;;;;8.95;4.78;;;26.00;99.90;;;;;;1714027;81;21224;-76
2023/08/21 03:15:19;;;;;;;8.15;5.05;;;26.00;99.90;;;;;;1742126;82;21193;-76
2023/08/21 03:18:11;;;;;;;8.35;4.60;;;26.00;99.90;;;;;;1742219;82;21224;-76
2023/08/21 03:21:02;;;;;;;8.63;4.75;;;26.00;99.90;;;;;;1741957;82;21094;-76
2023/08/21 03:23:57;;;;;;;8.90;4.60;;;25.90;99.90;;;;;;1741898;82;21189;-76
2023/08/21 03:26:49;;;;;;;6.85;4.37;;;25.90;99.90;;;;;;1742000;82;21192;-77
2023/08/21 03:29:40;;;;;;;9.40;4.15;;;25.90;99.90;;;;;;1742206;82;21133;-76
2023/08/21 03:32:32;;;;;;;5.22;3.62;;;25.90;99.90;;;;;;1742054;82;21650;-76
2023/08/21 03:35:24;;;;;;;6.62;4.10;;;25.90;99.90;;;;;;1742129;82;21148;-77
2023/08/21 03:38:16;;;;;;;9.25;4.45;;;25.70;99.90;;;;;;1742121;82;21181;-77
2023/08/21 03:41:08;;;;;;;8.80;4.30;;;25.60;99.90;;;;;;1742030;82;21102;-76
2023/08/21 03:44:00;;;;;;;6.53;4.12;;;25.50;99.90;;;;;;1742065;82;21215;-77
2023/08/21 03:46:51;;;;;;;6.78;4.03;;;25.40;99.90;;;;;;1742091;82;21145;-77
2023/08/21 03:49:43;;;;;;;9.73;4.47;;;25.40;99.90;;;;;;1742026;82;21105;-77
2023/08/21 03:52:34;;;;;;;7.15;3.60;;;25.40;99.90;;;;;;1742095;82;21198;-76
2023/08/21 03:55:26;;;;;;;6.67;3.83;;;25.40;99.90;;;;;;1741995;82;21145;-76
2023/08/21 03:58:17;;;;;;;5.67;3.67;;;25.40;99.90;;;;;;1742023;82;21082;-77
2023/08/21 04:01:09;;;;;;;6.03;3.83;;;25.50;99.90;;;;;;1741947;82;21144;-76
2023/08/21 04:04:00;;;;;;;6.30;3.60;;;25.50;99.90;;;;;;1741767;82;21134;-77
2023/08/21 04:06:52;;;;;;;5.72;3.30;;;25.50;99.90;;;;;;1741912;82;21231;-77
2023/08/21 04:09:44;;;;;;;8.88;3.98;;;25.60;99.90;;;;;;1741872;82;21649;-77
2023/08/21 04:12:35;;;;;;;5.67;3.62;;;25.60;99.90;;;;;;1742087;82;21215;-77
2023/08/21 04:15:28;;;;;;;11.35;4.30;;;25.60;99.90;;;;;;1742164;82;21682;-77
2023/08/21 04:18:19;;;;;;;5.80;3.75;;;25.60;99.90;;;;;;1741981;82;21652;-76
2023/08/21 04:21:14;;;;;;;6.90;4.33;;;25.60;99.90;;;;;;1741937;82;21106;-76
2023/08/21 04:24:05;;;;;;;7.35;3.92;;;25.60;99.90;;;;;;1741676;82;21229;-76
2023/08/21 04:26:57;;;;;;;7.00;3.75;;;25.50;99.90;;;;;;1741758;82;21145;-76
2023/08/21 04:29:48;;;;;;;5.60;4.00;;;25.50;99.90;;;;;;1741871;82;21164;-76
2023/08/21 04:32:39;;;;;;;7.42;4.30;;;25.50;99.90;;;;;;1742167;82;21156;-76
2023/08/21 04:35:31;;;;;;;5.45;3.67;;;25.50;99.90;;;;;;1742081;82;21641;-76
2023/08/21 04:38:22;;;;;;;8.88;3.77;;;25.40;99.90;;;;;;1742061;82;21122;-76
2023/08/21 04:41:14;;;;;;;5.37;3.52;;;25.40;99.90;;;;;;1741897;82;21136;-76
2023/08/21 04:44:07;;;;;;;5.08;3.30;;;25.30;99.90;;;;;;1742200;82;21149;-76
2023/08/21 04:46:59;;;;;;;4.55;3.67;;;25.40;99.90;;;;;;1742192;82;21291;-76
2023/08/21 04:49:50;;;;;;;12.37;3.80;;;25.30;99.90;;;;;;1741908;82;21144;-76
2023/08/21 04:52:43;;;;;;;6.72;3.62;;;25.30;99.90;;;;;;1742078;82;21570;-76
2023/08/21 04:55:36;;;;;;;7.25;3.37;;;25.30;99.90;;;;;;1741840;82;21231;-76
2023/08/21 04:58:28;;;;;;;7.33;3.52;;;25.30;99.90;;;;;;1741916;82;21214;-76
2023/08/21 05:01:19;;;;;;;5.42;3.30;;;25.30;99.90;;;;;;1742044;82;21252;-76
2023/08/21 05:04:11;;;;;;;7.78;3.80;;;25.30;99.90;;;;;;1742038;82;21596;-76
2023/08/21 05:07:03;;;;;;;5.40;3.60;;;25.30;99.90;;;;;;1742049;82;21566;-76
2023/08/21 05:09:55;;;;;;;6.17;3.87;;;25.30;99.90;;;;;;1741973;82;21153;-76
2023/08/21 05:12:47;;;;;;;10.15;4.47;;;25.30;99.90;;;;;;1741787;82;21260;-76
2023/08/21 05:15:40;;;;;;;5.37;3.62;;;25.30;99.90;;;;;;1747875;82;21226;-76
2023/08/21 05:18:32;;;;;;;6.12;3.80;;;25.30;99.90;;;;;;1792776;80;21148;-76
2023/08/21 05:21:23;;;;;;;8.25;4.00;;;25.30;99.90;;;;;;1723862;83;21113;-76
2023/08/21 05:24:15;;;;;;;5.97;3.65;;;25.30;99.90;;;;;;1792695;80;21738;-76
2023/08/21 05:27:08;;;;;;;6.92;3.83;;;25.30;99.90;;;;;;1723309;83;21205;-76
2023/08/21 05:29:59;;;;;;;7.03;4.10;;;25.30;99.90;;;;;;1792196;80;21619;-76
2023/08/21 05:32:51;;;;;;;7.08;4.17;;;25.30;99.90;;;;;;1723864;83;21227;-76
2023/08/21 05:35:43;;;;;;;6.42;3.95;;;25.40;99.90;;;;;;1792862;80;21203;-76
2023/08/21 05:38:35;;;;;;;5.47;3.83;;;25.50;99.90;;;;;;1723955;83;21164;-76
2023/08/21 05:41:26;;;;;;;6.85;3.80;;;25.50;99.90;;;;;;1792823;80;21684;-76
2023/08/21 05:44:18;;;;;;;7.90;4.90;;;25.50;99.90;;;;;;1723674;83;21678;-76
2023/08/21 05:47:10;;;;;;;5.87;3.87;;;25.50;99.90;;;;;;1792551;80;21177;-76
2023/08/21 05:50:01;;;;;;;7.78;3.70;;;25.50;99.90;;;;;;1723644;83;21157;-76
2023/08/21 05:52:54;;;;;;;6.30;3.90;;;25.50;99.90;;;;;;1792680;80;21097;-76
2023/08/21 05:55:45;;;;;;;5.53;3.70;;;25.50;99.90;;;;;;1723993;83;21137;-76
2023/08/21 05:58:37;;;;;;;5.87;3.90;;;25.50;99.90;;;;;;1792597;80;21132;-76
2023/08/21 06:01:30;;;;;;;7.60;4.35;;;25.60;99.90;;;;;;1723614;83;21734;-76
2023/08/21 06:04:22;;;;;;;8.60;4.58;;;25.60;99.90;;;;;;1792804;80;21187;-76
2023/08/21 06:07:16;;;;;;;5.47;3.72;;;25.70;99.90;;;;;;1724082;83;21192;-76
2023/08/21 06:10:11;;;;;;;8.10;4.03;;;25.80;99.90;;;;;;1792745;80;21655;-76
2023/08/21 06:13:02;;;;;;;8.90;5.03;;;25.80;99.90;;;;;;1723623;83;21219;-76
2023/08/21 06:15:54;;;;;;;5.62;4.22;;;25.80;99.90;;;;;;1785828;80;21202;-76
2023/08/21 06:18:47;;;;;;;8.33;4.47;;;25.90;99.90;;;;;;1704696;84;21105;-76
2023/08/21 06:21:39;;;;;;;6.30;3.85;;;25.90;99.90;;;;;;1769617;81;21164;-77
2023/08/21 06:24:30;;;;;;;6.17;3.83;;;26.00;99.90;;;;;;1704683;84;21149;-76
2023/08/21 06:27:23;;;;;;;7.40;4.00;;;26.00;99.90;;;;;;1769272;81;21240;-76
2023/08/21 06:30:16;;;;;;;8.23;3.70;;;26.00;99.90;;;;;;1704530;84;21140;-76
2023/08/21 06:33:08;;;;;;;7.35;4.40;;;26.10;99.90;;;;;;1769340;81;21091;-76
2023/08/21 06:36:00;;;;;;;12.13;4.53;;;26.10;99.90;;;;;;1704542;84;21205;-76
2023/08/21 06:38:51;;;;;;;7.87;4.85;;;26.20;99.90;;;;;;1769539;81;21178;-76
2023/08/21 06:41:43;;;;;;;10.23;5.78;;;26.20;99.90;;;;;;1704658;84;21101;-77
2023/08/21 06:44:36;;;;;;;7.10;4.08;;;26.20;99.90;;;;;;1769771;81;21147;-76
2023/08/21 06:47:27;;;;;;;8.05;4.20;;;26.20;99.90;;;;;;1704566;84;21149;-78
2023/08/21 06:50:19;;;;;;;8.80;3.90;;;26.20;99.90;;;;;;1769492;81;21107;-77
2023/08/21 06:53:10;;;;;;;6.03;4.22;;;26.20;99.90;;;;;;1704553;84;21207;-77
2023/08/21 06:56:02;;;;;;;6.72;4.20;;;26.40;99.90;;;;;;1769359;81;21201;-77
2023/08/21 06:58:55;;;;;;;10.18;4.50;;;26.40;99.90;;;;;;1704667;84;21162;-77
2023/08/21 07:01:46;;;;;;;6.33;4.30;;;26.50;99.90;;;;;;1769437;81;21181;-77
2023/08/21 07:04:38;;;;;;;9.23;4.70;;;26.50;99.90;;;;;;1704509;84;21110;-76
2023/08/21 07:07:29;;;;;;;6.33;4.67;;;26.60;99.90;;;;;;1769560;81;21182;-77
2023/08/21 07:10:20;;;;;;;5.70;4.00;;;26.60;99.90;;;;;;1704638;84;21145;-76
2023/08/21 07:13:12;;;;;;;7.60;4.10;;;26.70;99.90;;;;;;1769278;81;21230;-76
2023/08/21 07:16:05;;;;;;;7.10;4.40;;;26.80;99.90;;;;;;1704443;84;21109;-77
2023/08/21 07:18:56;;;;;;;10.32;4.12;;;26.80;99.90;;;;;;1769369;81;21235;-76
2023/08/21 07:21:48;;;;;;;8.55;4.30;;;26.90;99.90;;;;;;1704296;84;21117;-77
2023/08/21 07:24:41;;;;;;;6.15;4.37;;;27.00;99.90;;;;;;1769548;81;21104;-77
2023/08/21 07:27:33;;;;;;;8.13;4.00;;;27.10;99.90;;;;;;1704384;84;21663;-77
2023/08/21 07:30:24;;;;;;;6.97;3.87;;;27.20;99.90;;;;;;1769628;81;21214;-76
2023/08/21 07:33:16;;;;;;;7.97;4.50;;;27.20;99.90;;;;;;1704455;84;21601;-77
2023/08/21 07:36:14;;;;;;;7.53;4.58;;;27.20;99.90;;;;;;1769434;81;21156;-76
2023/08/21 07:39:05;;;;;;;8.13;4.37;;;27.30;99.90;;;;;;1704654;84;21145;-78
2023/08/21 07:41:56;;;;;;;11.50;4.35;;;27.30;99.90;;;;;;1769401;81;21123;-78
2023/08/21 07:44:47;;;;;;;8.03;4.17;;;27.40;99.90;;;;;;1704507;84;21174;-76
2023/08/21 07:47:39;;;;;;;6.65;4.05;;;27.50;99.90;;;;;;1769549;81;21119;-78
2023/08/21 07:50:30;;;;;;;12.53;4.55;;;27.60;99.90;;;;;;1704671;84;21188;-77
2023/08/21 07:53:22;;;;;;;11.12;4.30;;;27.70;99.90;;;;;;1769446;81;21130;-77
2023/08/21 07:56:13;;;;;;;8.73;4.90;;;27.80;99.90;;;;;;1704551;84;21946;-77
2023/08/21 07:59:04;;;;;;;8.00;4.47;;;27.80;99.90;;;;;;1769383;81;21185;-77
2023/08/21 08:01:56;;;;;;;6.95;3.65;;;27.90;99.90;;;;;;1704280;84;21227;-77
2023/08/21 08:04:48;;;;;;;6.95;4.17;;;28.00;99.90;;;;;;1768915;81;21136;-77
2023/08/21 08:07:39;;;;;;;9.15;4.42;;;28.00;99.90;;;;;;1704095;84;21145;-76
2023/08/21 08:10:30;;;;;;;11.75;4.45;;;28.10;99.90;;;;;;1769176;81;21120;-76
2023/08/21 08:13:22;;;;;;;6.58;4.28;;;28.10;99.90;;;;;;1704448;84;21152;-76
2023/08/21 08:16:13;;;;;;;5.05;3.98;;;28.20;99.90;;;;;;1769386;81;21103;-77
2023/08/21 08:19:06;;;;;;;7.20;3.80;;;28.30;99.90;;;;;;1703116;81;21242;-77
2023/08/21 08:21:57;;;;;;;7.40;4.20;;;28.40;99.90;;;;;;1702763;84;21132;-76
2023/08/21 08:24:49;;;;;;;7.17;4.22;;;28.50;99.90;;;;;;1702818;84;21591;-76
2023/08/21 08:27:40;;;;;;;7.53;4.35;;;28.50;99.90;;;;;;1702474;84;21219;-77
2023/08/21 08:30:31;;;;;;;7.67;4.33;;;28.60;99.90;;;;;;1702531;84;21267;-77
2023/08/21 08:33:23;;;;;;;6.03;4.00;;;28.70;99.90;;;;;;1702084;84;21168;-77
2023/08/21 08:36:14;;;;;;;8.83;4.10;;;28.80;99.90;;;;;;1702028;84;21227;-77
2023/08/21 08:39:06;;;;;;;10.65;4.30;;;28.90;99.90;;;;;;1702214;84;21274;-77
2023/08/21 08:42:01;;;;;;;6.53;3.90;;;28.90;99.90;;;;;;1702369;84;21161;-77
2023/08/21 08:44:54;;;;;;;6.30;3.60;;;29.10;99.90;;;;;;1702505;84;21674;-77
2023/08/21 08:47:46;;;;;;;6.12;3.80;;;29.20;99.90;;;;;;1702580;84;21196;-77
2023/08/21 08:50:40;;;;;;;7.40;3.80;;;29.30;99.90;;;;;;1702606;84;21102;-77
2023/08/21 08:53:31;;;;;;;6.80;4.10;;;29.30;99.90;;;;;;1702485;84;21193;-77
2023/08/21 08:56:23;;;;;;;6.15;4.00;;;29.40;99.90;;;;;;1702431;84;21201;-77
2023/08/21 08:59:14;;;;;;;8.25;4.37;;;29.50;99.90;;;;;;1702709;84;21105;-77
2023/08/21 09:02:06;;;;;;;9.08;4.03;;;29.60;99.90;;;;;;1702782;84;21165;-77
2023/08/21 09:04:58;;;;;;;6.47;4.20;;;29.70;99.90;;;;;;1702785;84;21232;-77
2023/08/21 09:08:03;;;;;;;10.18;4.67;;;29.80;99.90;;;;;;1702892;84;21116;-77
2023/08/21 09:10:56;;;;;;;8.50;3.92;;;29.90;99.90;;;;;;1702848;84;21203;-77
2023/08/21 09:13:49;;;;;;;7.47;4.08;;;30.00;99.90;;;;;;1702798;84;21164;-76
2023/08/21 09:16:42;;;;;;;7.20;4.12;;;30.10;99.90;;;;;;1702945;84;21197;-76
2023/08/21 09:19:34;;;;;;;5.08;4.20;;;30.20;99.90;;;;;;1703036;82;21137;-77
2023/08/21 09:22:25;;;;;;;4.50;4.10;;;30.30;99.90;;;;;;1702805;84;21242;-77
2023/08/21 09:25:18;;;;;;;7.85;4.10;;;30.40;99.90;;;;;;1702655;84;21668;-76
2023/08/21 09:28:10;;;;;;;6.97;4.15;;;30.40;99.90;;;;;;1702670;84;21121;-76
2023/08/21 09:31:03;;;;;;;10.20;4.17;;;30.50;99.90;;;;;;1702921;84;21168;-76
2023/08/21 09:34:04;;;;;;;8.05;4.00;;;30.60;99.90;;;;;;1702768;84;21145;-76
2023/08/21 09:36:57;;;;;;;9.00;4.30;;;30.70;99.90;;;;;;1702898;84;21203;-76
2023/08/21 09:39:49;;;;;;;8.60;3.80;;;30.80;98.70;;;;;;1702767;84;21228;-76
2023/08/21 09:42:41;;;;;;;9.45;3.70;;;30.90;97.90;;;;;;1702790;84;21211;-77
2023/08/21 09:45:35;;;;;;;7.97;3.52;;;31.00;97.20;;;;;;1702499;84;21231;-77
2023/08/21 09:48:27;;;;;;;6.50;4.12;;;31.20;96.90;;;;;;1702564;84;21154;-77
2023/08/21 09:51:19;;;;;;;8.75;3.77;;;31.30;96.30;;;;;;1702679;84;21117;-77
2023/08/21 09:54:10;;;;;;;7.37;3.92;;;31.40;96.00;;;;;;1702711;84;21644;-77
2023/08/21 09:57:04;;;;;;;7.12;3.65;;;31.40;95.50;;;;;;1702797;84;21251;-77
2023/08/21 09:59:56;;;;;;;4.22;3.12;;;31.60;95.10;;;;;;1702820;84;21648;-77
2023/08/21 10:02:51;;;;;;;8.65;3.50;;;31.60;93.90;;;;;;1702694;84;21176;-77
2023/08/21 10:05:44;;;;;;;4.10;3.10;;;31.60;93.10;;;;;;1702911;84;21181;-77
2023/08/21 10:08:39;;;;;;;7.67;3.52;;;31.60;92.80;;;;;;1702848;84;21239;-77
2023/08/21 10:11:32;;;;;;;7.08;3.80;;;31.70;92.40;;;;;;1702740;84;21196;-77
2023/08/21 10:14:25;;;;;;;6.72;3.50;;;31.80;92.20;;;;;;1702615;84;21105;-77
2023/08/21 10:17:16;;;;;;;9.98;4.40;;;31.90;92.40;;;;;;1702813;84;21148;-76
2023/08/21 10:20:10;;;;;;;5.85;3.42;;;32.00;92.30;;;;;;1702769;82;21173;-76
2023/08/21 10:23:03;;;;;;;5.35;3.60;;;32.10;91.30;;;;;;1702814;84;21215;-77
2023/08/21 10:25:57;;;;;;;5.12;3.33;;;32.10;91.20;;;;;;1702655;84;21144;-77
2023/08/21 10:28:54;;;;;;;6.78;3.50;;;32.20;91.10;;;;;;1702764;84;21243;-77
2023/08/21 10:31:45;;;;;;;7.10;4.00;;;32.20;90.80;;;;;;1702702;84;21623;-77
2023/08/21 10:34:38;;;;;;;8.58;3.60;;;32.20;90.50;;;;;;1702745;84;21182;-77
2023/08/21 10:37:30;;;;;;;5.95;3.70;;;32.20;90.40;;;;;;1702690;84;21215;-77
2023/08/21 10:40:26;;;;;;;4.22;3.35;;;32.40;90.30;;;;;;1702700;84;21140;-77
2023/08/21 10:43:40;;;;;;;5.33;3.60;;;32.40;90.20;;;;;;1703030;84;21149;-77
2023/08/21 10:46:34;;;;;;;7.42;3.90;;;32.40;90.30;;;;;;1702694;84;21141;-77
2023/08/21 10:49:25;;;;;;;7.42;3.85;;;32.50;89.40;;;;;;1703035;84;21166;-76
2023/08/21 10:52:21;;;;;;;9.10;4.10;;;32.60;89.30;;;;;;1702821;84;21254;-76
2023/08/21 10:55:12;;;;;;;7.10;3.70;;;32.70;89.50;;;;;;1703012;84;21222;-76
2023/08/21 10:58:04;;;;;;;7.97;3.58;;;32.80;89.10;;;;;;1702780;84;21167;-77
2023/08/21 11:01:00;;;;;;;7.53;4.00;;;32.80;88.80;;;;;;1702910;84;21149;-77
2023/08/21 11:03:53;;;;;;;6.60;3.60;;;32.90;88.80;;;;;;1702594;84;21137;-77
2023/08/21 11:06:44;;;;;;;5.37;3.98;;;33.00;87.70;;;;;;1702946;84;21109;-77
2023/08/21 11:09:38;;;;;;;7.22;3.67;;;33.20;86.30;;;;;;1702793;84;21188;-77
2023/08/21 11:12:30;;;;;;;5.95;4.20;;;33.20;86.50;;;;;;1702837;84;21110;-77
2023/08/21 11:15:22;;;;;;;6.37;3.98;;;33.30;86.40;;;;;;1702849;84;21288;-77
2023/08/21 11:18:15;;;;;;;5.92;3.75;;;33.40;86.40;;;;;;1702963;84;21161;-77
2023/08/21 11:21:08;;;;;;;10.45;3.95;;;33.40;86.50;;;;;;1702691;81;21299;-77
2023/08/21 11:23:59;;;;;;;7.55;4.37;;;33.50;86.60;;;;;;1702648;84;21164;-77
2023/08/21 11:26:51;;;;;;;8.90;4.40;;;33.60;86.60;;;;;;1702790;84;21157;-76
2023/08/21 11:29:44;;;;;;;7.62;4.30;;;33.60;86.30;;;;;;1702903;84;21148;-77
2023/08/21 11:32:35;;;;;;;4.45;3.90;;;33.70;86.70;;;;;;1702963;84;21156;-76
2023/08/21 11:35:28;;;;;;;6.40;3.80;;;33.80;87.00;;;;;;1702999;84;21157;-76
2023/08/21 11:38:21;;;;;;;8.78;4.28;;;33.90;87.60;;;;;;1702867;84;21176;-78
2023/08/21 11:41:13;;;;;;;5.22;3.85;;;34.10;87.60;;;;;;1702767;84;21600;-78
2023/08/21 11:44:05;;;;;;;7.00;4.37;;;34.20;88.50;;;;;;1702903;84;21192;-77
2023/08/21 11:46:57;;;;;;;7.47;4.30;;;34.30;89.30;;;;;;1702820;84;21223;-77
2023/08/21 11:49:49;;;;;;;7.58;4.17;;;34.40;89.30;;;;;;1702640;84;21624;-77
2023/08/21 11:52:41;;;;;;;4.97;3.62;;;34.50;89.30;;;;;;1702525;84;21152;-78
2023/08/21 11:55:32;;;;;;;6.70;4.30;;;34.60;87.80;;;;;;1702441;84;21639;-77
2023/08/21 11:58:24;;;;;;;8.30;4.10;;;34.70;88.70;;;;;;1702676;84;21239;-77
2023/08/21 12:01:19;;;;;;;8.75;3.62;;;34.70;87.40;;;;;;1702796;84;21197;-77
2023/08/21 12:04:18;;;;;;;8.88;3.80;;;34.70;87.20;;;;;;1702883;84;21222;-77
2023/08/21 12:07:09;;;;;;;10.78;4.05;;;34.90;87.00;;;;;;1727807;81;21087;-77
2023/08/21 12:10:01;;;;;;;5.28;3.70;;;34.90;85.70;;;;;;1775354;81;21194;-77
2023/08/21 12:12:53;;;;;;;8.60;4.03;;;34.90;85.30;;;;;;1738222;82;21474;-78
2023/08/21 12:15:45;;;;;;;5.97;3.90;;;35.00;84.10;;;;;;1751036;82;21101;-78
2023/08/21 12:18:36;;;;;;;7.25;4.15;;;35.10;86.20;;;;;;1775411;81;21140;-78
2023/08/21 12:21:28;;;;;;;7.65;3.90;;;35.20;86.70;;;;;;1748999;80;21173;-78
2023/08/21 12:24:20;;;;;;;5.50;4.00;;;35.20;85.20;;;;;;1780467;80;21102;-77
2023/08/21 12:27:11;;;;;;;4.92;3.80;;;35.30;86.20;;;;;;1780388;80;21114;-78
2023/08/21 12:30:03;;;;;;;6.60;3.65;;;35.40;86.50;;;;;;1780504;80;21137;-78
2023/08/21 12:32:55;;;;;;;5.50;4.08;;;35.40;87.00;;;;;;1780441;80;21117;-78
2023/08/21 12:35:48;;;;;;;5.42;3.98;;;35.40;86.90;;;;;;1780455;80;21240;-77
2023/08/21 12:38:41;;;;;;;8.20;4.85;;;35.50;86.80;;;;;;1780487;80;21237;-76
2023/08/21 12:41:34;;;;;;;5.17;3.60;;;35.60;87.10;;;;;;1780460;80;21185;-77
2023/08/21 12:44:26;;;;;;;6.22;4.00;;;35.70;87.30;;;;;;1780370;80;21178;-77
2023/08/21 12:47:17;;;;;;;5.97;4.20;;;35.80;87.60;;;;;;1780308;80;21207;-77
2023/08/21 12:50:10;;;;;;;4.95;3.60;;;35.90;87.30;;;;;;1780295;80;21248;-77
2023/08/21 12:53:03;;;;;;;5.37;4.37;;;36.00;86.40;;;;;;1780066;80;21133;-77
2023/08/21 12:55:54;;;;;;;6.95;3.83;;;35.90;86.30;;;;;;1780009;80;21148;-77
2023/08/21 12:58:47;;;;;;;7.33;3.70;;;36.00;85.90;;;;;;1780234;80;21235;-78
2023/08/21 13:01:39;;;;;;;6.72;3.70;;;36.00;85.50;;;;;;1780288;80;21077;-76
2023/08/21 13:04:30;;;;;;;6.30;4.00;;;36.00;84.80;;;;;;1780499;80;21255;-77
2023/08/21 13:07:22;;;;;;;5.87;3.40;;;36.10;85.00;;;;;;1780455;80;21106;-77
2023/08/21 13:10:13;;;;;;;6.33;3.60;;;36.20;84.00;;;;;;1780371;80;21133;-79
2023/08/21 13:13:05;;;;;;;6.70;3.72;;;36.30;83.40;;;;;;1780412;80;21169;-78
2023/08/21 13:15:57;;;;;;;4.15;2.70;;;36.30;83.70;;;;;;1780427;80;21202;-79
2023/08/21 13:18:48;;;;;;;5.35;3.47;;;36.40;81.60;;;;;;1780397;80;21227;-78
2023/08/21 13:21:40;;;;;;;4.33;3.42;;;36.40;80.30;;;;;;1780247;80;21212;-77
2023/08/21 13:24:32;;;;;;;3.65;2.83;;;36.40;80.00;;;;;;1780246;80;21161;-78
2023/08/21 13:27:24;;;;;;;3.72;2.75;;;36.50;78.40;;;;;;1800565;80;21105;-77
2023/08/21 13:30:16;;;;;;;4.45;2.62;;;36.60;76.20;;;;;;1800704;80;21190;-78
2023/08/21 13:33:09;;;;;;;2.58;2.37;;;36.70;74.40;;;;;;1800629;80;21127;-78
2023/08/21 13:36:01;;;;;;;3.47;2.25;;;36.70;73.60;;;;;;1800607;80;21143;-77
2023/08/21 13:38:52;;;;;;;4.33;2.40;;;36.80;72.80;;;;;;1800679;80;21239;-78
2023/08/21 13:41:43;;;;;;;6.60;2.83;;;36.90;73.20;;;;;;1800548;80;21124;-77
2023/08/21 13:44:34;;;;;;;4.72;2.80;;;37.00;73.30;;;;;;1800587;80;21729;-77
2023/08/21 13:47:25;;;;;;;4.40;2.37;;;36.90;71.90;;;;;;1800380;80;21127;-76
2023/08/21 13:50:18;;;;;;;5.53;3.12;;;37.00;71.30;;;;;;1800498;80;21178;-77
2023/08/21 13:53:10;;;;;;;3.37;2.55;;;36.90;73.20;;;;;;1800435;80;21124;-76
2023/08/21 13:56:01;;;;;;;5.28;2.90;;;37.10;72.70;;;;;;1800530;80;21162;-79
2023/08/21 13:58:52;;;;;;;4.33;2.90;;;37.00;72.60;;;;;;1800535;80;21174;-77
2023/08/21 14:01:44;;;;;;;3.52;2.72;;;37.10;72.30;;;;;;1800713;80;21569;-78
2023/08/21 14:04:35;;;;;;;4.30;2.92;;;37.20;72.10;;;;;;1800474;80;21115;-76
2023/08/21 14:07:27;;;;;;;5.87;2.90;;;37.40;71.40;;;;;;1800470;80;21120;-77
2023/08/21 14:10:19;;;;;;;4.80;2.67;;;38.00;70.80;;;;;;1800431;80;21182;-78
2023/08/21 14:13:11;;;;;;;3.85;2.95;;;38.50;70.10;;;;;;1800670;80;21131;-78
2023/08/21 14:16:03;;;;;;;5.92;3.10;;;38.80;69.30;;;;;;1800753;80;21168;-78
2023/08/21 14:18:54;;;;;;;3.45;3.12;;;38.80;68.80;;;;;;1800590;80;21076;-78
2023/08/21 14:21:46;;;;;;;5.35;3.22;;;38.90;69.20;;;;;;1800459;80;21192;-77
2023/08/21 14:24:37;;;;;;;3.37;3.00;;;39.00;69.00;;;;;;1792716;79;21218;-78
2023/08/21 14:27:29;;;;;;;4.80;3.05;;;39.20;68.20;;;;;;1790009;80;21069;-80
2023/08/21 14:30:21;;;;;;;6.00;2.45;;;39.40;66.40;;;;;;1789965;80;21102;-78
2023/08/21 14:33:13;;;;;;;7.28;2.75;;;39.60;65.50;;;;;;1790017;80;21219;-80
2023/08/21 14:36:06;;;;;;;8.63;2.70;;;39.70;63.70;;;;;;1789701;80;21088;-78
2023/08/21 14:38:58;;;;;;;3.67;2.47;;;39.90;63.50;;;;;;1790180;80;21143;-81
2023/08/21 14:41:55;;;;;;;4.65;2.58;;;40.00;62.50;;;;;;1789904;80;21131;-80
2023/08/21 14:44:46;;;;;;;3.80;2.42;;;40.20;62.30;;;;;;1790133;80;21240;-78
2023/08/21 14:47:38;;;;;;;6.60;2.22;;;40.50;60.70;;;;;;1790275;80;21225;-78
2023/08/21 14:50:29;;;;;;;2.45;2.02;;;40.50;59.10;;;;;;1790214;80;21088;-77
2023/08/21 14:53:21;;;;;;;3.50;2.20;;;40.40;58.90;;;;;;1790117;80;21135;-81